Terminal Aerodrome Forecast
Issued by NWS

Home | Current Version | Previous Version | Text Only | Print | Product List | Glossary On
Versions: 1 2 3 4 5 6 7 8 9 10 11 12 13 14 15 16 17 18 19 20 21 22 23 24 25 26 27
000
FTUS45 KGJT 191857 AAA
TAFMTJ
TAF AMD
KMTJ 191857Z 1919/2018 22014G22KT P6SM -RA SCT030 BKN035 OVC050
     FM192000 22009KT 6SM -RA SCT035 OVC050
     FM200200 15004KT P6SM VCSH SCT040 OVC080
     FM201200 14004KT P6SM VCFG SCT040 SCT080=

USA.gov is the U.S. government's official web portal to all federal, state and local government web resources and services.